ZRH weather

Z├╝rich Airport
Zurich, Canton of Zurich, Switzerland

Public forecast

Using degrees Celsius for public forecast. Weather courtesy of forecast.io.

METAR (pilot weather report)

Retrieved 2018/08/16 04:50 UTC (12 minutes ago):

LSZH 160450Z 00000KT 9999 MIFG NSC 12/11 Q1019 NOSIG

TAF (pilot weather forecast)

Retrieved 2018/08/16 03:37 UTC (1 hour ago):

TAF LSZH 160225Z 1603/1709 VRB03KT CAVOK TX29/1615Z TN12/1605Z TN14/1704Z TEMPO 1611/1617 06006KT BECMG 1706/1709 9999 FEW070